Capon Bridge, West Virginia
Current Conditions -  °F | °C
As of 8:55 AM on Wednesday 26 Nov 2014 (Local Time) from KOKV Reporting Station
Light Snow Light Snow  
Wind Chill:   Ceiling: 400
Heat Index:   Visibility: 0.75mi
Dew Point:   Wind: 0mph
Humidity: 93%   Direction: NA
Pressure: 30.04"   Gusts: NA
Location:  39.3°N, 78.44°W
Report Text: KOKV 261355Z AUTO 00000KT 3/4SM -SN OVC004 01/00 A3004 RMK AO2 P0007
Loading
Personal Weather Stations






























Interactive Weather Map New forecast layout! Learn more

10-Day Weather Forecast

Advertisements
Track Severe Weather on mobile